sensor_id;sensor_type;location;lat;lon;timestamp;temperature;humidity
1578;DHT22;57623;53.608;10.004;2023-02-28T00:00:40;4.50;99.90
1578;DHT22;57623;53.608;10.004;2023-02-28T00:03:09;4.50;99.90
1578;DHT22;57623;53.608;10.004;2023-02-28T00:05:38;4.50;99.90
1578;DHT22;57623;53.608;10.004;2023-02-28T00:08:08;4.40;99.90
1578;DHT22;57623;53.608;10.004;2023-02-28T00:10:36;4.40;99.90
1578;DHT22;57623;53.608;10.004;2023-02-28T00:13:05;4.40;99.90
1578;DHT22;57623;53.608;10.004;2023-02-28T00:15:34;4.40;99.90
1578;DHT22;57623;53.608;10.004;2023-02-28T00:18:02;4.40;99.90
1578;DHT22;57623;53.608;10.004;2023-02-28T00:20:30;4.30;99.90
1578;DHT22;57623;53.608;10.004;2023-02-28T00:22:59;4.30;99.90
1578;DHT22;57623;53.608;10.004;2023-02-28T00:25:27;4.20;99.90
1578;DHT22;57623;53.608;10.004;2023-02-28T00:27:55;4.20;99.90
1578;DHT22;57623;53.608;10.004;2023-02-28T00:30:23;4.20;99.90
1578;DHT22;57623;53.608;10.004;2023-02-28T00:36:32;4.10;99.90
1578;DHT22;57623;53.608;10.004;2023-02-28T00:39:01;4.10;99.90
1578;DHT22;57623;53.608;10.004;2023-02-28T00:41:29;4.10;99.90
1578;DHT22;57623;53.608;10.004;2023-02-28T00:43:58;4.00;99.90
1578;DHT22;57623;53.608;10.004;2023-02-28T00:46:26;4.00;99.90
1578;DHT22;57623;53.608;10.004;2023-02-28T00:48:54;4.00;99.90
1578;DHT22;57623;53.608;10.004;2023-02-28T00:51:22;3.90;99.90
1578;DHT22;57623;53.608;10.004;2023-02-28T00:53:50;3.90;99.90
1578;DHT22;57623;53.608;10.004;2023-02-28T00:56:19;3.90;99.90
1578;DHT22;57623;53.608;10.004;2023-02-28T00:58:47;3.80;99.90
1578;DHT22;57623;53.608;10.004;2023-02-28T01:01:15;3.80;99.90
1578;DHT22;57623;53.608;10.004;2023-02-28T01:03:43;3.80;99.90
1578;DHT22;57623;53.608;10.004;2023-02-28T01:06:11;3.70;99.90
1578;DHT22;57623;53.608;10.004;2023-02-28T01:08:39;3.70;99.90
1578;DHT22;57623;53.608;10.004;2023-02-28T01:11:09;3.70;99.90
1578;DHT22;57623;53.608;10.004;2023-02-28T01:13:38;3.70;99.90
1578;DHT22;57623;53.608;10.004;2023-02-28T01:16:07;3.60;99.90
1578;DHT22;57623;53.608;10.004;2023-02-28T01:18:36;3.60;99.90
1578;DHT22;57623;53.608;10.004;2023-02-28T01:21:05;3.60;99.90
1578;DHT22;57623;53.608;10.004;2023-02-28T01:23:33;3.60;99.90
1578;DHT22;57623;53.608;10.004;2023-02-28T01:26:04;3.60;99.90
1578;DHT22;57623;53.608;10.004;2023-02-28T01:28:32;3.50;99.90
1578;DHT22;57623;53.608;10.004;2023-02-28T01:31:01;3.50;99.90
1578;DHT22;57623;53.608;10.004;2023-02-28T01:33:30;3.50;99.90
1578;DHT22;57623;53.608;10.004;2023-02-28T01:35:59;3.50;99.90
1578;DHT22;57623;53.608;10.004;2023-02-28T01:38:27;3.50;99.90
1578;DHT22;57623;53.608;10.004;2023-02-28T01:40:55;3.50;99.90
1578;DHT22;57623;53.608;10.004;2023-02-28T01:43:25;3.50;99.90
1578;DHT22;57623;53.608;10.004;2023-02-28T01:45:54;3.50;99.90
1578;DHT22;57623;53.608;10.004;2023-02-28T01:48:26;3.50;99.90
1578;DHT22;57623;53.608;10.004;2023-02-28T01:50:56;3.40;99.90
1578;DHT22;57623;53.608;10.004;2023-02-28T01:53:32;3.40;99.90
1578;DHT22;57623;53.608;10.004;2023-02-28T01:56:04;3.40;99.90
1578;DHT22;57623;53.608;10.004;2023-02-28T01:58:33;3.40;99.90
1578;DHT22;57623;53.608;10.004;2023-02-28T02:01:01;3.40;99.90
1578;DHT22;57623;53.608;10.004;2023-02-28T02:03:31;3.40;99.90
1578;DHT22;57623;53.608;10.004;2023-02-28T02:05:59;3.40;99.90
1578;DHT22;57623;53.608;10.004;2023-02-28T02:08:29;3.40;99.90
1578;DHT22;57623;53.608;10.004;2023-02-28T02:10:59;3.40;99.90
1578;DHT22;57623;53.608;10.004;2023-02-28T02:13:46;3.40;99.90
1578;DHT22;57623;53.608;10.004;2023-02-28T02:16:34;3.40;99.90
1578;DHT22;57623;53.608;10.004;2023-02-28T02:19:36;3.40;99.90
1578;DHT22;57623;53.608;10.004;2023-02-28T02:22:26;3.50;99.90
1578;DHT22;57623;53.608;10.004;2023-02-28T02:25:16;3.50;99.90
1578;DHT22;57623;53.608;10.004;2023-02-28T02:34:28;3.50;99.90
1578;DHT22;57623;53.608;10.004;2023-02-28T02:37:06;3.50;99.90
1578;DHT22;57623;53.608;10.004;2023-02-28T02:39:44;3.50;99.90
1578;DHT22;57623;53.608;10.004;2023-02-28T02:42:16;3.50;99.90
1578;DHT22;57623;53.608;10.004;2023-02-28T02:44:52;3.50;99.90
1578;DHT22;57623;53.608;10.004;2023-02-28T02:47:25;3.40;99.90
1578;DHT22;57623;53.608;10.004;2023-02-28T02:49:57;3.40;99.90
1578;DHT22;57623;53.608;10.004;2023-02-28T02:52:32;3.40;99.90
1578;DHT22;57623;53.608;10.004;2023-02-28T02:55:01;3.30;99.90
1578;DHT22;57623;53.608;10.004;2023-02-28T02:57:32;3.30;99.90
1578;DHT22;57623;53.608;10.004;2023-02-28T03:00:03;3.30;99.90
1578;DHT22;57623;53.608;10.004;2023-02-28T03:02:35;3.20;99.90
1578;DHT22;57623;53.608;10.004;2023-02-28T03:05:12;3.10;99.90
1578;DHT22;57623;53.608;10.004;2023-02-28T03:07:41;3.10;99.90
1578;DHT22;57623;53.608;10.004;2023-02-28T03:10:29;3.10;99.90
1578;DHT22;57623;53.608;10.004;2023-02-28T03:15:57;3.00;99.90
1578;DHT22;57623;53.608;10.004;2023-02-28T03:18:32;3.00;99.90
1578;DHT22;57623;53.608;10.004;2023-02-28T03:21:10;2.90;99.90
1578;DHT22;57623;53.608;10.004;2023-02-28T03:23:45;2.90;99.90
1578;DHT22;57623;53.608;10.004;2023-02-28T03:26:20;2.80;99.90
1578;DHT22;57623;53.608;10.004;2023-02-28T03:28:54;2.80;99.90
1578;DHT22;57623;53.608;10.004;2023-02-28T03:31:27;2.80;99.90
1578;DHT22;57623;53.608;10.004;2023-02-28T03:34:02;2.80;99.90
1578;DHT22;57623;53.608;10.004;2023-02-28T03:36:36;2.70;99.90
1578;DHT22;57623;53.608;10.004;2023-02-28T03:39:15;2.70;99.90
1578;DHT22;57623;53.608;10.004;2023-02-28T03:41:47;2.60;99.90
1578;DHT22;57623;53.608;10.004;2023-02-28T03:44:24;2.60;99.90
1578;DHT22;57623;53.608;10.004;2023-02-28T03:46:57;2.50;99.90
1578;DHT22;57623;53.608;10.004;2023-02-28T03:49:30;2.50;99.90
1578;DHT22;57623;53.608;10.004;2023-02-28T03:52:02;2.40;99.90
1578;DHT22;57623;53.608;10.004;2023-02-28T03:54:35;2.30;99.90
1578;DHT22;57623;53.608;10.004;2023-02-28T03:57:10;2.20;99.90
1578;DHT22;57623;53.608;10.004;2023-02-28T03:59:42;2.20;99.90
1578;DHT22;57623;53.608;10.004;2023-02-28T04:02:10;2.10;99.90
1578;DHT22;57623;53.608;10.004;2023-02-28T04:04:39;2.10;99.90
1578;DHT22;57623;53.608;10.004;2023-02-28T04:07:17;2.10;99.90
1578;DHT22;57623;53.608;10.004;2023-02-28T04:09:45;2.00;99.90
1578;DHT22;57623;53.608;10.004;2023-02-28T04:12:13;2.00;99.90
1578;DHT22;57623;53.608;10.004;2023-02-28T04:14:41;1.90;99.90
1578;DHT22;57623;53.608;10.004;2023-02-28T04:17:08;1.90;99.90
1578;DHT22;57623;53.608;10.004;2023-02-28T04:19:37;1.80;99.90
1578;DHT22;57623;53.608;10.004;2023-02-28T04:22:04;1.80;99.90
1578;DHT22;57623;53.608;10.004;2023-02-28T04:24:35;1.70;99.90
1578;DHT22;57623;53.608;10.004;2023-02-28T04:27:03;1.70;99.90
1578;DHT22;57623;53.608;10.004;2023-02-28T04:29:31;1.60;99.90
1578;DHT22;57623;53.608;10.004;2023-02-28T04:32:00;1.60;99.90
1578;DHT22;57623;53.608;10.004;2023-02-28T04:34:30;1.60;99.90
1578;DHT22;57623;53.608;10.004;2023-02-28T04:36:59;1.60;99.90
1578;DHT22;57623;53.608;10.004;2023-02-28T04:39:44;1.50;99.90
1578;DHT22;57623;53.608;10.004;2023-02-28T04:42:12;1.50;99.90
1578;DHT22;57623;53.608;10.004;2023-02-28T04:44:41;1.40;99.90
1578;DHT22;57623;53.608;10.004;2023-02-28T04:47:09;1.40;99.90
1578;DHT22;57623;53.608;10.004;2023-02-28T04:49:36;1.40;99.90
1578;DHT22;57623;53.608;10.004;2023-02-28T04:52:05;1.30;99.90
1578;DHT22;57623;53.608;10.004;2023-02-28T04:54:34;1.30;99.90
1578;DHT22;57623;53.608;10.004;2023-02-28T04:57:03;1.20;99.90
1578;DHT22;57623;53.608;10.004;2023-02-28T04:59:31;1.30;99.90
1578;DHT22;57623;53.608;10.004;2023-02-28T05:01:59;1.20;99.90
1578;DHT22;57623;53.608;10.004;2023-02-28T05:04:30;1.20;99.90
1578;DHT22;57623;53.608;10.004;2023-02-28T05:07:00;1.20;99.90
1578;DHT22;57623;53.608;10.004;2023-02-28T05:09:29;1.10;99.90
1578;DHT22;57623;53.608;10.004;2023-02-28T05:11:56;1.10;99.90
1578;DHT22;57623;53.608;10.004;2023-02-28T05:14:26;1.10;99.90
1578;DHT22;57623;53.608;10.004;2023-02-28T05:16:54;1.00;99.90
1578;DHT22;57623;53.608;10.004;2023-02-28T05:19:22;1.00;99.90
1578;DHT22;57623;53.608;10.004;2023-02-28T05:21:51;0.90;99.90
1578;DHT22;57623;53.608;10.004;2023-02-28T05:24:19;0.80;99.90
1578;DHT22;57623;53.608;10.004;2023-02-28T05:26:51;0.90;99.90
1578;DHT22;57623;53.608;10.004;2023-02-28T05:29:19;0.80;99.90
1578;DHT22;57623;53.608;10.004;2023-02-28T05:31:49;0.80;99.90
1578;DHT22;57623;53.608;10.004;2023-02-28T05:34:17;0.80;99.90
1578;DHT22;57623;53.608;10.004;2023-02-28T05:36:45;0.80;99.90
1578;DHT22;57623;53.608;10.004;2023-02-28T05:39:13;0.80;99.90
1578;DHT22;57623;53.608;10.004;2023-02-28T05:41:41;0.80;99.90
1578;DHT22;57623;53.608;10.004;2023-02-28T05:44:10;0.80;99.90
1578;DHT22;57623;53.608;10.004;2023-02-28T05:46:38;0.80;99.90
1578;DHT22;57623;53.608;10.004;2023-02-28T05:49:08;0.80;99.90
1578;DHT22;57623;53.608;10.004;2023-02-28T05:51:36;0.80;99.90
1578;DHT22;57623;53.608;10.004;2023-02-28T05:54:07;0.70;99.90
1578;DHT22;57623;53.608;10.004;2023-02-28T05:56:35;0.70;99.90
1578;DHT22;57623;53.608;10.004;2023-02-28T05:59:05;0.70;99.90
1578;DHT22;57623;53.608;10.004;2023-02-28T06:01:35;0.60;99.90
1578;DHT22;57623;53.608;10.004;2023-02-28T06:04:06;0.60;99.90
1578;DHT22;57623;53.608;10.004;2023-02-28T06:06:47;0.60;99.90
1578;DHT22;57623;53.608;10.004;2023-02-28T06:09:15;0.50;99.90
1578;DHT22;57623;53.608;10.004;2023-02-28T06:11:43;0.60;99.90
1578;DHT22;57623;53.608;10.004;2023-02-28T06:14:14;0.50;99.90
1578;DHT22;57623;53.608;10.004;2023-02-28T06:16:43;0.50;99.90
1578;DHT22;57623;53.608;10.004;2023-02-28T06:19:11;0.50;99.90
1578;DHT22;57623;53.608;10.004;2023-02-28T06:21:40;0.40;99.90
1578;DHT22;57623;53.608;10.004;2023-02-28T06:24:09;0.40;99.90
1578;DHT22;57623;53.608;10.004;2023-02-28T06:26:37;0.40;99.90
1578;DHT22;57623;53.608;10.004;2023-02-28T06:29:05;0.40;99.90
1578;DHT22;57623;53.608;10.004;2023-02-28T06:31:33;0.40;99.90
1578;DHT22;57623;53.608;10.004;2023-02-28T06:34:01;0.40;99.90
1578;DHT22;57623;53.608;10.004;2023-02-28T06:36:29;0.40;99.90
1578;DHT22;57623;53.608;10.004;2023-02-28T06:38:58;0.40;99.90
1578;DHT22;57623;53.608;10.004;2023-02-28T06:41:27;0.50;99.90
1578;DHT22;57623;53.608;10.004;2023-02-28T06:44:00;0.50;99.90
1578;DHT22;57623;53.608;10.004;2023-02-28T06:46:27;0.50;99.90
1578;DHT22;57623;53.608;10.004;2023-02-28T06:48:55;0.60;99.90
1578;DHT22;57623;53.608;10.004;2023-02-28T06:51:23;0.60;99.90
1578;DHT22;57623;53.608;10.004;2023-02-28T06:53:51;0.70;99.90
1578;DHT22;57623;53.608;10.004;2023-02-28T06:56:19;0.70;99.90
1578;DHT22;57623;53.608;10.004;2023-02-28T06:58:49;0.70;99.90
1578;DHT22;57623;53.608;10.004;2023-02-28T07:01:19;0.70;99.90
1578;DHT22;57623;53.608;10.004;2023-02-28T07:03:50;0.70;99.90
1578;DHT22;57623;53.608;10.004;2023-02-28T07:06:19;0.70;99.90
1578;DHT22;57623;53.608;10.004;2023-02-28T07:08:49;0.70;99.90
1578;DHT22;57623;53.608;10.004;2023-02-28T07:11:17;0.70;99.90
1578;DHT22;57623;53.608;10.004;2023-02-28T07:13:45;0.70;99.90
1578;DHT22;57623;53.608;10.004;2023-02-28T07:16:15;0.80;99.90
1578;DHT22;57623;53.608;10.004;2023-02-28T07:18:43;0.80;99.90
1578;DHT22;57623;53.608;10.004;2023-02-28T07:21:11;0.90;99.90
1578;DHT22;57623;53.608;10.004;2023-02-28T07:23:40;1.00;99.90
1578;DHT22;57623;53.608;10.004;2023-02-28T07:26:12;1.00;99.90
1578;DHT22;57623;53.608;10.004;2023-02-28T07:28:41;1.10;99.90
1578;DHT22;57623;53.608;10.004;2023-02-28T07:31:10;1.20;99.90
1578;DHT22;57623;53.608;10.004;2023-02-28T07:33:42;1.40;99.90
1578;DHT22;57623;53.608;10.004;2023-02-28T07:36:12;1.70;99.90
1578;DHT22;57623;53.608;10.004;2023-02-28T07:38:42;1.80;99.90
1578;DHT22;57623;53.608;10.004;2023-02-28T07:41:14;1.90;99.90
1578;DHT22;57623;53.608;10.004;2023-02-28T07:43:42;2.00;99.90
1578;DHT22;57623;53.608;10.004;2023-02-28T07:46:12;2.00;99.90
1578;DHT22;57623;53.608;10.004;2023-02-28T07:48:44;1.90;99.90
1578;DHT22;57623;53.608;10.004;2023-02-28T07:51:12;1.90;99.90
1578;DHT22;57623;53.608;10.004;2023-02-28T07:53:40;1.90;99.90
1578;DHT22;57623;53.608;10.004;2023-02-28T07:56:08;1.90;99.90
1578;DHT22;57623;53.608;10.004;2023-02-28T07:58:37;2.00;99.90
1578;DHT22;57623;53.608;10.004;2023-02-28T08:01:06;2.00;99.90
1578;DHT22;57623;53.608;10.004;2023-02-28T08:03:34;2.00;99.90
1578;DHT22;57623;53.608;10.004;2023-02-28T08:06:05;2.10;99.90
1578;DHT22;57623;53.608;10.004;2023-02-28T08:08:33;2.10;99.90
1578;DHT22;57623;53.608;10.004;2023-02-28T08:11:03;2.10;99.90
1578;DHT22;57623;53.608;10.004;2023-02-28T08:13:31;2.20;99.90
1578;DHT22;57623;53.608;10.004;2023-02-28T08:16:01;2.20;99.90
1578;DHT22;57623;53.608;10.004;2023-02-28T08:18:30;2.30;99.90
1578;DHT22;57623;53.608;10.004;2023-02-28T08:20:58;2.30;99.90
1578;DHT22;57623;53.608;10.004;2023-02-28T08:23:28;2.40;99.90
1578;DHT22;57623;53.608;10.004;2023-02-28T08:25:56;2.40;99.90
1578;DHT22;57623;53.608;10.004;2023-02-28T08:28:24;2.50;99.90
1578;DHT22;57623;53.608;10.004;2023-02-28T08:30:53;2.60;99.90
1578;DHT22;57623;53.608;10.004;2023-02-28T08:33:21;2.70;99.90
1578;DHT22;57623;53.608;10.004;2023-02-28T08:35:52;2.70;99.90
1578;DHT22;57623;53.608;10.004;2023-02-28T08:38:21;2.80;99.90
1578;DHT22;57623;53.608;10.004;2023-02-28T08:40:57;2.90;99.90
1578;DHT22;57623;53.608;10.004;2023-02-28T08:43:25;2.90;99.90
1578;DHT22;57623;53.608;10.004;2023-02-28T08:45:53;3.00;99.90
1578;DHT22;57623;53.608;10.004;2023-02-28T08:48:23;3.10;99.90
1578;DHT22;57623;53.608;10.004;2023-02-28T08:50:55;3.10;99.90
1578;DHT22;57623;53.608;10.004;2023-02-28T08:53:33;3.10;99.90
1578;DHT22;57623;53.608;10.004;2023-02-28T08:56:05;3.30;99.90
1578;DHT22;57623;53.608;10.004;2023-02-28T08:58:34;3.40;99.90
1578;DHT22;57623;53.608;10.004;2023-02-28T09:01:08;3.40;99.90
1578;DHT22;57623;53.608;10.004;2023-02-28T09:03:39;3.50;99.90
1578;DHT22;57623;53.608;10.004;2023-02-28T09:06:10;3.60;99.90
1578;DHT22;57623;53.608;10.004;2023-02-28T09:08:38;3.60;99.90
1578;DHT22;57623;53.608;10.004;2023-02-28T09:11:08;3.70;99.90
1578;DHT22;57623;53.608;10.004;2023-02-28T09:13:37;3.80;99.90
1578;DHT22;57623;53.608;10.004;2023-02-28T09:16:07;3.90;99.90
1578;DHT22;57623;53.608;10.004;2023-02-28T09:18:36;3.90;99.90
1578;DHT22;57623;53.608;10.004;2023-02-28T09:21:05;4.00;99.90
1578;DHT22;57623;53.608;10.004;2023-02-28T09:23:33;4.00;99.90
1578;DHT22;57623;53.608;10.004;2023-02-28T09:26:01;4.10;99.90
1578;DHT22;57623;53.608;10.004;2023-02-28T09:28:30;4.10;99.90
1578;DHT22;57623;53.608;10.004;2023-02-28T09:30:59;4.20;99.90
1578;DHT22;57623;53.608;10.004;2023-02-28T09:33:27;4.30;99.90
1578;DHT22;57623;53.608;10.004;2023-02-28T09:35:59;4.30;99.90
1578;DHT22;57623;53.608;10.004;2023-02-28T09:38:28;4.40;99.90
1578;DHT22;57623;53.608;10.004;2023-02-28T09:40:58;4.50;99.90
1578;DHT22;57623;53.608;10.004;2023-02-28T09:43:31;4.60;99.90
1578;DHT22;57623;53.608;10.004;2023-02-28T09:46:06;4.70;99.90
1578;DHT22;57623;53.608;10.004;2023-02-28T09:48:40;4.70;99.90
1578;DHT22;57623;53.608;10.004;2023-02-28T09:51:16;4.80;99.90
1578;DHT22;57623;53.608;10.004;2023-02-28T09:53:49;4.90;99.90
1578;DHT22;57623;53.608;10.004;2023-02-28T09:56:31;4.90;99.90
1578;DHT22;57623;53.608;10.004;2023-02-28T09:59:05;4.90;99.90
1578;DHT22;57623;53.608;10.004;2023-02-28T10:01:39;5.00;99.90
1578;DHT22;57623;53.608;10.004;2023-02-28T10:04:11;5.00;99.90
1578;DHT22;57623;53.608;10.004;2023-02-28T10:06:46;5.10;99.90
1578;DHT22;57623;53.608;10.004;2023-02-28T10:09:18;5.10;99.90
1578;DHT22;57623;53.608;10.004;2023-02-28T10:11:50;5.20;99.90
1578;DHT22;57623;53.608;10.004;2023-02-28T10:14:26;5.30;99.90
1578;DHT22;57623;53.608;10.004;2023-02-28T10:16:56;5.40;99.90
1578;DHT22;57623;53.608;10.004;2023-02-28T10:19:30;5.40;99.90
1578;DHT22;57623;53.608;10.004;2023-02-28T10:22:03;5.50;99.90
1578;DHT22;57623;53.608;10.004;2023-02-28T10:24:35;5.60;99.90
1578;DHT22;57623;53.608;10.004;2023-02-28T10:27:13;5.70;99.90
1578;DHT22;57623;53.608;10.004;2023-02-28T10:29:45;5.80;99.90
1578;DHT22;57623;53.608;10.004;2023-02-28T10:32:17;5.90;99.90
1578;DHT22;57623;53.608;10.004;2023-02-28T10:34:50;6.00;99.90
1578;DHT22;57623;53.608;10.004;2023-02-28T10:37:19;6.00;99.90
1578;DHT22;57623;53.608;10.004;2023-02-28T10:39:47;6.10;99.90
1578;DHT22;57623;53.608;10.004;2023-02-28T10:42:21;6.10;99.90
1578;DHT22;57623;53.608;10.004;2023-02-28T10:45:13;6.10;99.90
1578;DHT22;57623;53.608;10.004;2023-02-28T10:47:53;6.10;99.90
1578;DHT22;57623;53.608;10.004;2023-02-28T10:50:34;6.10;99.90
1578;DHT22;57623;53.608;10.004;2023-02-28T10:53:28;6.20;99.90
1578;DHT22;57623;53.608;10.004;2023-02-28T10:56:15;6.30;99.90
1578;DHT22;57623;53.608;10.004;2023-02-28T10:58:50;6.40;99.90
1578;DHT22;57623;53.608;10.004;2023-02-28T11:01:21;6.60;99.90
1578;DHT22;57623;53.608;10.004;2023-02-28T11:03:51;6.70;99.90
1578;DHT22;57623;53.608;10.004;2023-02-28T11:06:21;6.80;99.90
1578;DHT22;57623;53.608;10.004;2023-02-28T11:08:52;6.90;99.90
1578;DHT22;57623;53.608;10.004;2023-02-28T11:11:21;7.00;99.90
1578;DHT22;57623;53.608;10.004;2023-02-28T11:13:54;7.00;99.90
1578;DHT22;57623;53.608;10.004;2023-02-28T11:16:33;7.20;99.90
1578;DHT22;57623;53.608;10.004;2023-02-28T11:19:02;7.30;99.90
1578;DHT22;57623;53.608;10.004;2023-02-28T11:21:34;7.40;99.90
1578;DHT22;57623;53.608;10.004;2023-02-28T11:24:14;7.50;99.90
1578;DHT22;57623;53.608;10.004;2023-02-28T11:26:47;7.60;99.90
1578;DHT22;57623;53.608;10.004;2023-02-28T11:29:20;7.60;99.90
1578;DHT22;57623;53.608;10.004;2023-02-28T11:32:11;7.60;99.90
1578;DHT22;57623;53.608;10.004;2023-02-28T11:34:41;7.70;99.90
1578;DHT22;57623;53.608;10.004;2023-02-28T11:37:12;7.80;99.90
1578;DHT22;57623;53.608;10.004;2023-02-28T11:39:41;8.00;99.90
1578;DHT22;57623;53.608;10.004;2023-02-28T11:42:22;8.00;94.50
1578;DHT22;57623;53.608;10.004;2023-02-28T11:45:08;8.10;96.30
1578;DHT22;57623;53.608;10.004;2023-02-28T11:47:45;8.10;99.90
1578;DHT22;57623;53.608;10.004;2023-02-28T11:50:32;8.30;93.20
1578;DHT22;57623;53.608;10.004;2023-02-28T11:53:10;8.40;94.90
1578;DHT22;57623;53.608;10.004;2023-02-28T11:55:45;8.60;95.20
1578;DHT22;57623;53.608;10.004;2023-02-28T11:58:30;8.80;91.30
1578;DHT22;57623;53.608;10.004;2023-02-28T12:01:38;9.00;81.50
1578;DHT22;57623;53.608;10.004;2023-02-28T12:04:22;9.20;77.10
1578;DHT22;57623;53.608;10.004;2023-02-28T12:06:57;9.40;77.00
1578;DHT22;57623;53.608;10.004;2023-02-28T12:09:50;9.60;67.30
1578;DHT22;57623;53.608;10.004;2023-02-28T12:12:29;9.90;67.80
1578;DHT22;57623;53.608;10.004;2023-02-28T12:15:25;10.30;61.40
1578;DHT22;57623;53.608;10.004;2023-02-28T12:18:11;10.90;54.80
1578;DHT22;57623;53.608;10.004;2023-02-28T12:20:49;11.70;53.90
1578;DHT22;57623;53.608;10.004;2023-02-28T12:23:29;12.60;47.30
1578;DHT22;57623;53.608;10.004;2023-02-28T12:26:12;14.10;45.30
1578;DHT22;57623;53.608;10.004;2023-02-28T12:28:44;16.50;41.50
1578;DHT22;57623;53.608;10.004;2023-02-28T12:31:18;18.60;35.30
1578;DHT22;57623;53.608;10.004;2023-02-28T12:33:52;20.80;31.80
1578;DHT22;57623;53.608;10.004;2023-02-28T12:36:23;23.00;28.20
1578;DHT22;57623;53.608;10.004;2023-02-28T12:38:55;25.70;25.90
1578;DHT22;57623;53.608;10.004;2023-02-28T12:41:29;27.80;22.50
1578;DHT22;57623;53.608;10.004;2023-02-28T12:44:03;29.40;20.90
1578;DHT22;57623;53.608;10.004;2023-02-28T12:46:38;31.20;18.90
1578;DHT22;57623;53.608;10.004;2023-02-28T12:49:12;31.10;18.30
1578;DHT22;57623;53.608;10.004;2023-02-28T12:51:43;31.60;18.60
1578;DHT22;57623;53.608;10.004;2023-02-28T12:54:16;31.90;17.30
1578;DHT22;57623;53.608;10.004;2023-02-28T12:56:52;32.50;16.50
1578;DHT22;57623;53.608;10.004;2023-02-28T12:59:27;32.10;15.50
1578;DHT22;57623;53.608;10.004;2023-02-28T13:02:02;32.30;15.10
1578;DHT22;57623;53.608;10.004;2023-02-28T13:05:10;32.50;15.30
1578;DHT22;57623;53.608;10.004;2023-02-28T13:08:03;32.80;14.60
1578;DHT22;57623;53.608;10.004;2023-02-28T13:10:40;32.70;15.00
1578;DHT22;57623;53.608;10.004;2023-02-28T13:13:14;32.40;15.00
1578;DHT22;57623;53.608;10.004;2023-02-28T13:15:58;32.20;15.00
1578;DHT22;57623;53.608;10.004;2023-02-28T13:18:35;32.00;15.40
1578;DHT22;57623;53.608;10.004;2023-02-28T13:21:07;31.70;15.40
1578;DHT22;57623;53.608;10.004;2023-02-28T13:23:57;31.40;15.50
1578;DHT22;57623;53.608;10.004;2023-02-28T13:29:37;31.10;15.80
1578;DHT22;57623;53.608;10.004;2023-02-28T13:32:35;30.70;15.10
1578;DHT22;57623;53.608;10.004;2023-02-28T13:38:37;30.10;15.70
1578;DHT22;57623;53.608;10.004;2023-02-28T13:44:24;29.50;15.70
1578;DHT22;57623;53.608;10.004;2023-02-28T13:47:21;29.30;16.30
1578;DHT22;57623;53.608;10.004;2023-02-28T13:49:52;28.90;16.30
1578;DHT22;57623;53.608;10.004;2023-02-28T13:52:22;28.80;16.40
1578;DHT22;57623;53.608;10.004;2023-02-28T13:55:25;28.20;17.30
1578;DHT22;57623;53.608;10.004;2023-02-28T13:58:03;26.80;16.80
1578;DHT22;57623;53.608;10.004;2023-02-28T14:00:48;25.20;17.50
1578;DHT22;57623;53.608;10.004;2023-02-28T14:06:22;23.20;18.60
1578;DHT22;57623;53.608;10.004;2023-02-28T14:08:57;22.20;18.90
1578;DHT22;57623;53.608;10.004;2023-02-28T14:11:29;21.10;20.20
1578;DHT22;57623;53.608;10.004;2023-02-28T14:13:58;19.80;21.70
1578;DHT22;57623;53.608;10.004;2023-02-28T14:16:35;19.00;21.90
1578;DHT22;57623;53.608;10.004;2023-02-28T14:19:11;18.50;21.50
1578;DHT22;57623;53.608;10.004;2023-02-28T14:21:50;17.90;23.30
1578;DHT22;57623;53.608;10.004;2023-02-28T14:27:47;16.70;24.60
1578;DHT22;57623;53.608;10.004;2023-02-28T14:33:53;16.00;25.10
1578;DHT22;57623;53.608;10.004;2023-02-28T14:36:25;15.50;26.10
1578;DHT22;57623;53.608;10.004;2023-02-28T14:38:56;15.00;26.20
1578;DHT22;57623;53.608;10.004;2023-02-28T14:41:29;14.70;26.50
1578;DHT22;57623;53.608;10.004;2023-02-28T14:43:59;14.40;27.70
1578;DHT22;57623;53.608;10.004;2023-02-28T14:46:34;14.20;27.40
1578;DHT22;57623;53.608;10.004;2023-02-28T14:49:05;13.90;28.90
1578;DHT22;57623;53.608;10.004;2023-02-28T14:51:35;13.60;28.40
1578;DHT22;57623;53.608;10.004;2023-02-28T14:54:03;13.30;29.20
1578;DHT22;57623;53.608;10.004;2023-02-28T14:56:35;13.10;28.50
1578;DHT22;57623;53.608;10.004;2023-02-28T14:59:05;12.80;28.50
1578;DHT22;57623;53.608;10.004;2023-02-28T15:01:52;12.50;28.30
1578;DHT22;57623;53.608;10.004;2023-02-28T15:04:25;12.20;28.40
1578;DHT22;57623;53.608;10.004;2023-02-28T15:07:07;12.00;29.20
1578;DHT22;57623;53.608;10.004;2023-02-28T15:09:35;11.80;29.50
1578;DHT22;57623;53.608;10.004;2023-02-28T15:12:04;11.70;29.50
1578;DHT22;57623;53.608;10.004;2023-02-28T15:14:32;11.50;29.70
1578;DHT22;57623;53.608;10.004;2023-02-28T15:17:05;11.40;29.80
1578;DHT22;57623;53.608;10.004;2023-02-28T15:19:42;11.30;29.90
1578;DHT22;57623;53.608;10.004;2023-02-28T15:22:13;11.10;30.70
1578;DHT22;57623;53.608;10.004;2023-02-28T15:24:46;11.10;30.10
1578;DHT22;57623;53.608;10.004;2023-02-28T15:27:19;11.00;30.70
1578;DHT22;57623;53.608;10.004;2023-02-28T15:29:50;10.90;30.70
1578;DHT22;57623;53.608;10.004;2023-02-28T15:32:24;10.80;30.60
1578;DHT22;57623;53.608;10.004;2023-02-28T15:34:55;10.70;31.40
1578;DHT22;57623;53.608;10.004;2023-02-28T15:37:28;10.60;33.10
1578;DHT22;57623;53.608;10.004;2023-02-28T15:39:58;10.50;33.60
1578;DHT22;57623;53.608;10.004;2023-02-28T15:42:31;10.40;34.10
1578;DHT22;57623;53.608;10.004;2023-02-28T15:44:59;10.30;33.50
1578;DHT22;57623;53.608;10.004;2023-02-28T15:47:29;10.20;33.30
1578;DHT22;57623;53.608;10.004;2023-02-28T15:50:00;10.10;33.20
1578;DHT22;57623;53.608;10.004;2023-02-28T15:52:33;10.00;32.30
1578;DHT22;57623;53.608;10.004;2023-02-28T15:55:09;9.90;34.10
1578;DHT22;57623;53.608;10.004;2023-02-28T15:57:40;9.80;34.60
1578;DHT22;57623;53.608;10.004;2023-02-28T16:00:11;9.70;35.10
1578;DHT22;57623;53.608;10.004;2023-02-28T16:02:40;9.60;35.90
1578;DHT22;57623;53.608;10.004;2023-02-28T16:05:23;9.50;38.80
1578;DHT22;57623;53.608;10.004;2023-02-28T16:07:55;9.40;37.40
1578;DHT22;57623;53.608;10.004;2023-02-28T16:10:24;9.30;37.40
1578;DHT22;57623;53.608;10.004;2023-02-28T16:12:54;9.20;39.00
1578;DHT22;57623;53.608;10.004;2023-02-28T16:15:25;9.20;39.10
1578;DHT22;57623;53.608;10.004;2023-02-28T16:17:54;9.10;38.90
1578;DHT22;57623;53.608;10.004;2023-02-28T16:20:25;9.00;38.80
1578;DHT22;57623;53.608;10.004;2023-02-28T16:22:53;8.90;41.70
1578;DHT22;57623;53.608;10.004;2023-02-28T16:25:24;8.90;43.90
1578;DHT22;57623;53.608;10.004;2023-02-28T16:27:54;8.80;43.10
1578;DHT22;57623;53.608;10.004;2023-02-28T16:30:25;8.70;42.90
1578;DHT22;57623;53.608;10.004;2023-02-28T16:32:54;8.60;46.60
1578;DHT22;57623;53.608;10.004;2023-02-28T16:35:24;8.50;52.00
1578;DHT22;57623;53.608;10.004;2023-02-28T16:37:53;8.50;50.60
1578;DHT22;57623;53.608;10.004;2023-02-28T16:40:23;8.40;55.60
1578;DHT22;57623;53.608;10.004;2023-02-28T16:42:54;8.30;86.10
1578;DHT22;57623;53.608;10.004;2023-02-28T16:45:25;8.30;93.90
1578;DHT22;57623;53.608;10.004;2023-02-28T16:47:54;8.20;99.90